Time;durP1;ratioP1;P1;durP2;ratioP2;P2;SDS_P1;SDS_P2;PMS_P1;PMS_P2;Temp;Humidity;BMP_temperature;BMP_pressure;BME280_temperature;BME280_humidity;BME280_pressure;Samples;Min_cycle;Max_cycle;Signal;HPM_P1;HPM_P2
2023/01/16 01:24:00;;;;;;;3.60;1.10;;;;;;;;;;5091961;27;86144;-72
2023/01/16 01:26:26;;;;;;;2.92;1.25;;;;;;;;;;5066912;27;86320;-72
2023/01/16 01:28:53;;;;;;;2.67;1.58;;;;;;;;;;5069246;27;94739;-71
2023/01/16 01:31:19;;;;;;;2.25;1.20;;;;;;;;;;5067031;27;93415;-70
2023/01/16 01:33:46;;;;;;;2.40;1.10;;;;;;;;;;5059234;27;90113;-70
2023/01/16 01:36:13;;;;;;;2.58;1.30;;;;;;;;;;5070500;27;86883;-70
2023/01/16 01:38:40;;;;;;;1.50;0.90;;;;;;;;;;5072232;27;86937;-74
2023/01/16 01:41:07;;;;;;;;;;;;;;;;;;5067829;27;87135;-70
2023/01/16 01:43:44;;;;;;;5.15;2.22;;;;;;;;;;5040665;27;88616;-67
2023/01/16 01:46:31;;;;;;;6.30;2.60;;;;;;;;;;5073637;27;86585;-65
2023/01/16 01:49:00;;;;;;;8.60;2.70;;;;;;;;;;5073774;27;88708;-65
2023/01/16 01:51:29;;;;;;;6.45;2.65;;;;;;;;;;5080963;27;86953;-65
2023/01/16 01:53:59;;;;;;;9.40;2.40;;;;;;;;;;5080845;27;86873;-65
2023/01/16 01:56:44;;;;;;;8.95;2.10;;;;;;;;;;5071961;27;86608;-65
2023/01/16 01:59:12;;;;;;;9.93;2.80;;;;;;;;;;5062875;27;87679;-65
2023/01/16 02:01:39;;;;;;;9.25;3.00;;;;;;;;;;5062161;27;88852;-66
2023/01/16 02:04:10;;;;;;;6.75;2.03;;;;;;;;;;5060521;27;86962;-65
2023/01/16 02:06:40;;;;;;;6.28;2.50;;;;;;;;;;5084924;27;86564;-65
2023/01/16 02:09:07;;;;;;;12.77;2.70;;;;;;;;;;5081949;27;86680;-65
2023/01/16 02:11:36;;;;;;;8.02;2.45;;;;;;;;;;5070940;27;87796;-66
2023/01/16 02:14:08;;;;;;;9.77;2.38;;;;;;;;;;5068284;27;87004;-66
2023/01/16 02:19:30;;;;;;;5.80;2.13;;;;;;;;;;5081784;27;86953;-65
2023/01/16 02:22:03;;;;;;;7.95;2.20;;;;;;;;;;5081154;27;86945;-65
2023/01/16 02:24:46;;;;;;;6.72;2.13;;;;;;;;;;5081786;27;86654;-65
2023/01/16 02:27:30;;;;;;;6.53;2.33;;;;;;;;;;5052231;27;88761;-65
2023/01/16 02:30:00;;;;;;;6.55;2.38;;;;;;;;;;5085178;27;87508;-66
2023/01/16 02:32:26;;;;;;;6.20;1.90;;;;;;;;;;5081167;27;87276;-65
2023/01/16 02:35:04;;;;;;;7.10;1.80;;;;;;;;;;5070461;27;86355;-65
2023/01/16 02:37:31;;;;;;;4.88;1.48;;;;;;;;;;5067417;27;86629;-65
2023/01/16 02:40:24;;;;;;;10.40;1.90;;;;;;;;;;5068132;27;88051;-66
2023/01/16 02:42:58;;;;;;;4.18;1.70;;;;;;;;;;5018465;27;87125;-66
2023/01/16 02:45:29;;;;;;;5.97;1.52;;;;;;;;;;5067824;27;87178;-65
2023/01/16 02:48:04;;;;;;;6.40;1.75;;;;;;;;;;5063870;27;87068;-66
2023/01/16 02:50:38;;;;;;;6.13;1.73;;;;;;;;;;5067516;27;87509;-66
2023/01/16 02:53:10;;;;;;;5.32;1.92;;;;;;;;;;5070267;27;87262;-65
2023/01/16 02:55:39;;;;;;;4.35;1.50;;;;;;;;;;5056022;27;86934;-65
2023/01/16 02:58:06;;;;;;;4.55;1.90;;;;;;;;;;5064139;27;87363;-65
2023/01/16 03:00:33;;;;;;;;;;;;;;;;;;5068091;27;87634;-65
2023/01/16 03:02:59;;;;;;;5.65;1.50;;;;;;;;;;5058852;27;116416;-65
2023/01/16 03:05:30;;;;;;;4.15;1.42;;;;;;;;;;5058652;27;87052;-65
2023/01/16 03:08:12;;;;;;;3.90;1.40;;;;;;;;;;5066093;27;86877;-65
2023/01/16 03:10:41;;;;;;;3.55;1.50;;;;;;;;;;5059186;27;87163;-65
2023/01/16 03:13:14;;;;;;;4.85;1.50;;;;;;;;;;5065546;27;87039;-65
2023/01/16 03:15:40;;;;;;;6.13;1.98;;;;;;;;;;5070324;27;87975;-67
2023/01/16 03:18:15;;;;;;;5.20;1.60;;;;;;;;;;5067047;27;86477;-66
2023/01/16 03:20:54;;;;;;;5.10;1.55;;;;;;;;;;5048746;27;89437;-65
2023/01/16 03:23:23;;;;;;;5.95;1.75;;;;;;;;;;5048185;27;89391;-65
2023/01/16 03:26:01;;;;;;;4.10;1.33;;;;;;;;;;5059622;27;86789;-65
2023/01/16 03:28:30;;;;;;;5.55;1.40;;;;;;;;;;5065623;27;87157;-65
2023/01/16 03:30:59;;;;;;;4.80;1.58;;;;;;;;;;5066990;27;87006;-65
2023/01/16 03:33:52;;;;;;;5.18;1.40;;;;;;;;;;5066642;27;87012;-65
2023/01/16 03:36:23;;;;;;;4.55;1.30;;;;;;;;;;5060676;27;88139;-66
2023/01/16 03:38:51;;;;;;;5.95;1.50;;;;;;;;;;5069160;27;86487;-65
2023/01/16 03:41:20;;;;;;;5.07;1.40;;;;;;;;;;5058042;27;86382;-64
2023/01/16 03:43:49;;;;;;;4.60;1.55;;;;;;;;;;5060532;27;87075;-65
2023/01/16 03:46:18;;;;;;;6.15;1.50;;;;;;;;;;5065538;27;87654;-67
2023/01/16 03:48:48;;;;;;;5.25;1.35;;;;;;;;;;5064019;27;87582;-67
2023/01/16 03:51:25;;;;;;;6.43;1.65;;;;;;;;;;5039086;27;86421;-66
2023/01/16 03:54:06;;;;;;;6.43;1.42;;;;;;;;;;5060755;27;87620;-66
2023/01/16 03:56:40;;;;;;;4.47;1.30;;;;;;;;;;5055344;27;87954;-67
2023/01/16 03:59:07;;;;;;;4.72;1.40;;;;;;;;;;5070177;27;87515;-65
2023/01/16 04:01:36;;;;;;;2.58;1.10;;;;;;;;;;5057806;27;86991;-65
2023/01/16 04:04:21;;;;;;;4.63;1.25;;;;;;;;;;5053272;27;86967;-65
2023/01/16 04:06:53;;;;;;;4.22;1.30;;;;;;;;;;5066558;27;86312;-64
2023/01/16 04:09:26;;;;;;;6.68;1.50;;;;;;;;;;5066193;27;86516;-65
2023/01/16 04:11:53;;;;;;;4.57;1.40;;;;;;;;;;5059150;27;86985;-65
2023/01/16 04:14:21;;;;;;;3.60;1.15;;;;;;;;;;5065824;27;86353;-65
2023/01/16 04:16:48;;;;;;;4.03;1.30;;;;;;;;;;5065949;27;86766;-65
2023/01/16 04:19:15;;;;;;;5.50;1.30;;;;;;;;;;5066001;27;87770;-65
2023/01/16 04:21:44;;;;;;;5.55;1.60;;;;;;;;;;5068272;27;86485;-64
2023/01/16 04:24:11;;;;;;;4.80;1.42;;;;;;;;;;5066307;27;86827;-65
2023/01/16 04:26:37;;;;;;;4.72;1.35;;;;;;;;;;5055321;27;86404;-65
2023/01/16 04:29:04;;;;;;;3.40;1.00;;;;;;;;;;5066103;27;87163;-65
2023/01/16 04:31:30;;;;;;;3.15;1.30;;;;;;;;;;5065952;27;87085;-66
2023/01/16 04:33:57;;;;;;;5.20;1.35;;;;;;;;;;5065852;27;86580;-65
2023/01/16 04:36:23;;;;;;;6.63;1.63;;;;;;;;;;5066285;27;86593;-64
2023/01/16 04:38:49;;;;;;;4.22;1.20;;;;;;;;;;5065724;27;86946;-65
2023/01/16 04:41:35;;;;;;;5.80;1.13;;;;;;;;;;5049430;27;86640;-65
2023/01/16 04:44:06;;;;;;;6.32;1.30;;;;;;;;;;5045556;27;86655;-65
2023/01/16 04:46:32;;;;;;;4.90;1.65;;;;;;;;;;5065611;27;86770;-65
2023/01/16 04:48:59;;;;;;;4.10;1.38;;;;;;;;;;5065959;27;86764;-66
2023/01/16 04:51:26;;;;;;;4.07;1.25;;;;;;;;;;5066007;27;86216;-66
2023/01/16 04:53:52;;;;;;;3.42;1.20;;;;;;;;;;5065498;27;86939;-66
2023/01/16 04:56:18;;;;;;;4.40;1.40;;;;;;;;;;5050826;27;86779;-66
2023/01/16 04:58:45;;;;;;;4.85;1.30;;;;;;;;;;5062719;27;86933;-65
2023/01/16 05:01:11;;;;;;;4.32;1.33;;;;;;;;;;5058345;27;86645;-65
2023/01/16 05:03:38;;;;;;;5.57;1.42;;;;;;;;;;5055270;27;87513;-65
2023/01/16 05:06:04;;;;;;;4.32;1.30;;;;;;;;;;5068426;27;87039;-65
2023/01/16 05:08:31;;;;;;;4.57;1.45;;;;;;;;;;5065126;27;88014;-65
2023/01/16 05:11:00;;;;;;;4.80;1.50;;;;;;;;;;5063026;27;87070;-65
2023/01/16 05:13:27;;;;;;;4.30;1.30;;;;;;;;;;5054720;27;86443;-66
2023/01/16 05:15:54;;;;;;;4.20;1.25;;;;;;;;;;5065606;27;86954;-65
2023/01/16 05:18:21;;;;;;;4.85;1.20;;;;;;;;;;5064970;27;87185;-65
2023/01/16 05:20:47;;;;;;;3.75;1.35;;;;;;;;;;5065552;27;86630;-65
2023/01/16 05:23:13;;;;;;;6.55;1.55;;;;;;;;;;5064736;27;86882;-64
2023/01/16 05:25:40;;;;;;;7.10;1.30;;;;;;;;;;5065556;27;86945;-65
2023/01/16 05:28:06;;;;;;;4.43;1.50;;;;;;;;;;5067512;27;86697;-66
2023/01/16 05:30:33;;;;;;;5.70;1.48;;;;;;;;;;5065476;27;86972;-65
2023/01/16 05:33:01;;;;;;;3.75;1.60;;;;;;;;;;5064848;27;86617;-65
2023/01/16 05:35:27;;;;;;;3.38;1.30;;;;;;;;;;5061273;27;87801;-65
2023/01/16 05:37:54;;;;;;;3.35;1.23;;;;;;;;;;5061235;27;86980;-65
2023/01/16 05:40:20;;;;;;;5.70;1.70;;;;;;;;;;5063838;27;87573;-65
2023/01/16 05:42:47;;;;;;;4.90;1.30;;;;;;;;;;5053050;27;88276;-65
2023/01/16 05:45:14;;;;;;;4.25;1.33;;;;;;;;;;5063765;27;88906;-65
2023/01/16 05:47:40;;;;;;;6.13;1.40;;;;;;;;;;5055480;27;89016;-65
2023/01/16 05:50:07;;;;;;;6.43;1.50;;;;;;;;;;5063558;27;87733;-65
2023/01/16 05:52:33;;;;;;;4.32;1.30;;;;;;;;;;5063755;27;87925;-65
2023/01/16 05:55:00;;;;;;;4.38;1.50;;;;;;;;;;5061079;27;89230;-65
2023/01/16 05:57:26;;;;;;;5.28;1.30;;;;;;;;;;5047215;27;87497;-65
2023/01/16 05:59:53;;;;;;;4.90;1.60;;;;;;;;;;5059857;27;88735;-65
2023/01/16 06:02:20;;;;;;;3.65;1.27;;;;;;;;;;5045947;27;87605;-65
2023/01/16 06:04:46;;;;;;;5.03;1.30;;;;;;;;;;5054067;27;87953;-65
2023/01/16 06:07:13;;;;;;;3.97;1.40;;;;;;;;;;5063131;27;89026;-65
2023/01/16 06:09:40;;;;;;;4.80;1.33;;;;;;;;;;5068172;27;89079;-65
2023/01/16 06:12:09;;;;;;;4.80;1.45;;;;;;;;;;5066969;27;88779;-65
2023/01/16 06:14:35;;;;;;;4.60;1.35;;;;;;;;;;5031952;27;90449;-65
2023/01/16 06:17:02;;;;;;;6.85;1.50;;;;;;;;;;5067129;27;87679;-65
2023/01/16 06:19:28;;;;;;;6.47;1.80;;;;;;;;;;5067585;27;88551;-65
2023/01/16 06:21:54;;;;;;;4.90;1.60;;;;;;;;;;5066852;27;88173;-65
2023/01/16 06:24:21;;;;;;;4.13;1.50;;;;;;;;;;5067123;27;87616;-65
2023/01/16 06:26:47;;;;;;;5.40;1.40;;;;;;;;;;5061597;27;87495;-65
2023/01/16 06:29:13;;;;;;;5.35;1.25;;;;;;;;;;5044315;27;87909;-66
2023/01/16 06:31:40;;;;;;;3.13;1.20;;;;;;;;;;5067560;27;87937;-65
2023/01/16 06:34:06;;;;;;;5.18;1.50;;;;;;;;;;5060473;27;88987;-65
2023/01/16 06:36:33;;;;;;;4.60;1.40;;;;;;;;;;5065682;27;87955;-65
2023/01/16 06:38:59;;;;;;;4.05;1.38;;;;;;;;;;5058814;27;88160;-65
2023/01/16 06:41:26;;;;;;;5.22;1.63;;;;;;;;;;5066683;27;88388;-66
2023/01/16 06:43:52;;;;;;;3.15;1.27;;;;;;;;;;5057174;27;88377;-65
2023/01/16 06:46:18;;;;;;;5.50;1.50;;;;;;;;;;5067080;27;87988;-65
2023/01/16 06:48:45;;;;;;;3.67;1.40;;;;;;;;;;5054856;27;88252;-65
2023/01/16 06:51:11;;;;;;;4.07;1.38;;;;;;;;;;5067179;27;87410;-65
2023/01/16 06:53:38;;;;;;;4.97;1.30;;;;;;;;;;5069383;27;87865;-65
2023/01/16 06:56:04;;;;;;;4.63;1.45;;;;;;;;;;5056621;27;87650;-65
2023/01/16 06:58:31;;;;;;;4.05;1.60;;;;;;;;;;5032095;27;88683;-65
2023/01/16 07:00:57;;;;;;;3.10;1.17;;;;;;;;;;5048175;27;90829;-65
2023/01/16 07:03:24;;;;;;;4.38;1.23;;;;;;;;;;5057853;27;87669;-65
2023/01/16 07:05:50;;;;;;;4.20;1.30;;;;;;;;;;5065593;27;88139;-65
2023/01/16 07:08:17;;;;;;;3.78;1.30;;;;;;;;;;5066051;27;89225;-65
2023/01/16 07:10:44;;;;;;;5.07;1.20;;;;;;;;;;5066596;27;88212;-65
2023/01/16 07:13:10;;;;;;;3.10;1.30;;;;;;;;;;5065999;27;88175;-65
2023/01/16 07:24:03;;;;;;;5.00;1.23;;;;;;;;;;5065807;27;88646;-65
2023/01/16 07:26:30;;;;;;;3.00;1.20;;;;;;;;;;5063016;27;88198;-65
2023/01/16 07:28:57;;;;;;;4.47;1.17;;;;;;;;;;5047726;27;89122;-64
2023/01/16 07:31:24;;;;;;;3.33;1.02;;;;;;;;;;5060115;27;88337;-64
2023/01/16 07:33:51;;;;;;;6.13;1.40;;;;;;;;;;5056808;27;88056;-65
2023/01/16 07:36:17;;;;;;;3.55;1.20;;;;;;;;;;5065885;27;88179;-65
2023/01/16 07:38:43;;;;;;;3.70;1.08;;;;;;;;;;5068229;27;87963;-65
2023/01/16 07:41:10;;;;;;;4.53;1.02;;;;;;;;;;5066309;27;86923;-65
2023/01/16 07:43:36;;;;;;;3.83;1.30;;;;;;;;;;5053320;27;88139;-64
2023/01/16 07:46:02;;;;;;;4.25;1.10;;;;;;;;;;5057847;27;88072;-64
2023/01/16 07:48:29;;;;;;;3.80;1.00;;;;;;;;;;5058815;27;89384;-63
2023/01/16 07:50:56;;;;;;;2.97;1.00;;;;;;;;;;5064108;27;87949;-64
2023/01/16 07:53:24;;;;;;;3.45;1.00;;;;;;;;;;5061451;27;88466;-64
2023/01/16 07:55:51;;;;;;;4.47;1.00;;;;;;;;;;5054526;27;88300;-64
2023/01/16 07:58:18;;;;;;;2.45;1.10;;;;;;;;;;5057263;27;87560;-64
2023/01/16 08:00:44;;;;;;;3.78;1.00;;;;;;;;;;5061457;27;88208;-65
2023/01/16 08:03:12;;;;;;;3.05;1.10;;;;;;;;;;5049632;27;88047;-65
2023/01/16 08:05:38;;;;;;;3.95;1.20;;;;;;;;;;5063016;27;88380;-65
2023/01/16 08:08:05;;;;;;;4.55;1.15;;;;;;;;;;5063895;27;88895;-65
2023/01/16 08:10:31;;;;;;;2.47;0.95;;;;;;;;;;5042597;27;87828;-65
2023/01/16 08:12:58;;;;;;;3.85;0.90;;;;;;;;;;5057002;27;88781;-65
2023/01/16 08:15:24;;;;;;;2.58;0.90;;;;;;;;;;5064567;27;89802;-65
2023/01/16 08:17:51;;;;;;;2.22;0.90;;;;;;;;;;5065091;27;88071;-64
2023/01/16 08:20:17;;;;;;;2.80;1.20;;;;;;;;;;5060427;27;87721;-65
2023/01/16 08:22:44;;;;;;;2.25;0.85;;;;;;;;;;5064333;27;87762;-65
2023/01/16 08:25:11;;;;;;;2.10;0.90;;;;;;;;;;5056638;27;88132;-65
2023/01/16 08:27:37;;;;;;;2.58;1.05;;;;;;;;;;5053982;27;88355;-65
2023/01/16 08:30:08;;;;;;;2.63;1.05;;;;;;;;;;5056742;27;87926;-65
2023/01/16 08:32:34;;;;;;;3.35;1.10;;;;;;;;;;5064037;27;87664;-65
2023/01/16 08:35:03;;;;;;;2.38;1.00;;;;;;;;;;5054906;27;89271;-65
2023/01/16 08:37:30;;;;;;;3.00;1.00;;;;;;;;;;5063883;27;88761;-65
2023/01/16 08:39:57;;;;;;;2.55;1.10;;;;;;;;;;5053670;27;88684;-65
2023/01/16 08:53:25;;;;;;;2.60;1.00;;;;;;;;;;5059733;27;88252;-65
2023/01/16 08:55:51;;;;;;;1.58;1.00;;;;;;;;;;5030057;28;87754;-64
2023/01/16 08:58:20;;;;;;;2.25;1.00;;;;;;;;;;5054176;27;88824;-65
2023/01/16 09:00:47;;;;;;;2.28;1.00;;;;;;;;;;5053531;27;88256;-65
2023/01/16 09:03:16;;;;;;;4.90;1.10;;;;;;;;;;5058801;27;89638;-67
2023/01/16 09:05:43;;;;;;;9.23;1.30;;;;;;;;;;5066132;27;87690;-66
2023/01/16 09:08:09;;;;;;;4.05;1.00;;;;;;;;;;5042249;27;88341;-69
2023/01/16 09:10:36;;;;;;;1.40;0.82;;;;;;;;;;5060662;27;87877;-69
2023/01/16 09:15:48;;;;;;;2.28;1.00;;;;;;;;;;5060314;27;90100;-71
2023/01/16 09:18:15;;;;;;;2.58;1.00;;;;;;;;;;5041682;27;88024;-70
2023/01/16 09:20:41;;;;;;;2.42;0.80;;;;;;;;;;5060505;27;87461;-69
2023/01/16 09:23:08;;;;;;;3.38;0.80;;;;;;;;;;5061189;27;88805;-70
2023/01/16 09:25:35;;;;;;;4.00;1.00;;;;;;;;;;5061350;27;87936;-70
2023/01/16 09:28:03;;;;;;;3.17;1.00;;;;;;;;;;5060691;27;88316;-69
2023/01/16 09:30:29;;;;;;;5.55;1.10;;;;;;;;;;5051914;27;87758;-71
2023/01/16 09:32:56;;;;;;;4.85;0.88;;;;;;;;;;5062472;27;88042;-71
2023/01/16 09:35:22;;;;;;;1.83;0.82;;;;;;;;;;5057542;27;88610;-73
2023/01/16 09:37:49;;;;;;;3.28;1.25;;;;;;;;;;5063298;27;87982;-72
2023/01/16 09:40:17;;;;;;;2.28;0.80;;;;;;;;;;5054429;27;87878;-71
2023/01/16 09:45:46;;;;;;;2.17;0.90;;;;;;;;;;5035050;27;87356;-70
2023/01/16 09:48:18;;;;;;;3.25;0.80;;;;;;;;;;5037325;27;89372;-70
2023/01/16 09:50:48;;;;;;;1.63;0.90;;;;;;;;;;5064211;27;88348;-73
2023/01/16 09:59:21;;;;;;;2.72;0.70;;;;;;;;;;5025601;27;87716;-67
2023/01/16 10:01:52;;;;;;;2.53;0.80;;;;;;;;;;5065056;27;88304;-69
2023/01/16 10:04:20;;;;;;;3.65;1.05;;;;;;;;;;5063353;27;88735;-69
2023/01/16 10:06:54;;;;;;;1.58;0.90;;;;;;;;;;5065219;27;87838;-69
2023/01/16 10:09:43;;;;;;;2.53;0.90;;;;;;;;;;5059660;27;88752;-66
2023/01/16 10:12:11;;;;;;;2.25;0.90;;;;;;;;;;5020802;27;88655;-66
2023/01/16 10:14:44;;;;;;;2.38;0.88;;;;;;;;;;5064167;27;87517;-66
2023/01/16 10:17:20;;;;;;;1.63;0.80;;;;;;;;;;5064574;27;88402;-66
2023/01/16 10:19:51;;;;;;;1.00;0.80;;;;;;;;;;5060928;27;88674;-66
2023/01/16 10:22:27;;;;;;;2.30;0.80;;;;;;;;;;5051993;27;89485;-66
2023/01/16 10:25:20;;;;;;;2.47;0.88;;;;;;;;;;5051573;27;87687;-66
2023/01/16 10:27:52;;;;;;;1.52;0.90;;;;;;;;;;5013908;27;88382;-65
2023/01/16 10:30:26;;;;;;;2.20;0.80;;;;;;;;;;5061928;27;88339;-66
2023/01/16 10:32:57;;;;;;;0.68;0.68;;;;;;;;;;5066096;27;88377;-66
2023/01/16 10:35:26;;;;;;;1.15;0.63;;;;;;;;;;5065306;27;87627;-66
2023/01/16 10:37:53;;;;;;;3.50;0.90;;;;;;;;;;5065988;27;87575;-66
2023/01/16 10:40:24;;;;;;;3.90;1.00;;;;;;;;;;5050602;27;88674;-66
2023/01/16 10:49:25;;;;;;;2.97;1.10;;;;;;;;;;5061755;27;89673;-65
2023/01/16 10:51:34;;;;;;;4.30;1.30;;;;;;;;;;5062138;27;87913;-67
2023/01/16 10:54:02;;;;;;;3.20;1.13;;;;;;;;;;5064556;27;88582;-67
2023/01/16 10:56:29;;;;;;;2.88;0.98;;;;;;;;;;5059744;27;88030;-67
2023/01/16 10:58:56;;;;;;;2.88;1.10;;;;;;;;;;5067571;27;88407;-67
2023/01/16 11:01:24;;;;;;;3.50;1.00;;;;;;;;;;5052091;27;88166;-66
2023/01/16 11:03:59;;;;;;;3.13;0.93;;;;;;;;;;5053765;27;88176;-66
2023/01/16 11:06:26;;;;;;;2.55;1.05;;;;;;;;;;5039527;27;88153;-67
2023/01/16 11:08:53;;;;;;;;;;;;;;;;;;5061277;27;88117;-67
2023/01/16 11:20:02;;;;;;;1.45;0.80;;;;;;;;;;5058338;27;88195;-67
2023/01/16 11:22:28;;;;;;;1.45;0.80;;;;;;;;;;5066790;27;88383;-67
2023/01/16 11:24:58;;;;;;;1.42;0.93;;;;;;;;;;5062489;27;88058;-67
2023/01/16 11:27:27;;;;;;;3.35;1.02;;;;;;;;;;5045395;27;87915;-67
2023/01/16 11:29:55;;;;;;;2.95;1.00;;;;;;;;;;5058962;27;87176;-67
2023/01/16 11:32:24;;;;;;;1.98;0.85;;;;;;;;;;5061680;27;87886;-67
2023/01/16 11:34:53;;;;;;;2.47;0.90;;;;;;;;;;5061515;27;88302;-66
2023/01/16 11:37:20;;;;;;;1.30;0.73;;;;;;;;;;5061528;27;88796;-66
2023/01/16 11:39:48;;;;;;;2.17;0.82;;;;;;;;;;5061499;27;89290;-67
2023/01/16 11:48:00;;;;;;;1.63;0.80;;;;;;;;;;5061112;27;88106;-67
2023/01/16 11:50:28;;;;;;;2.33;1.00;;;;;;;;;;5061678;27;87631;-67
2023/01/16 11:52:54;;;;;;;1.83;0.80;;;;;;;;;;5042707;27;88124;-67
2023/01/16 11:55:25;;;;;;;2.67;0.93;;;;;;;;;;5061874;27;87678;-67
2023/01/16 11:58:17;;;;;;;1.77;0.80;;;;;;;;;;5062682;27;88039;-66
2023/01/16 12:00:53;;;;;;;2.72;0.80;;;;;;;;;;5049316;27;88203;-71
2023/01/16 12:03:31;;;;;;;2.35;0.73;;;;;;;;;;5057023;27;90132;-68
2023/01/16 12:06:07;;;;;;;1.55;0.77;;;;;;;;;;5056158;27;88335;-68
2023/01/16 12:08:56;;;;;;;5.88;1.45;;;;;;;;;;5061396;27;88002;-68
2023/01/16 12:11:26;;;;;;;4.95;0.90;;;;;;;;;;5063034;27;87838;-69
2023/01/16 12:14:20;;;;;;;2.70;0.90;;;;;;;;;;5050916;27;88282;-68
2023/01/16 12:16:53;;;;;;;4.82;1.00;;;;;;;;;;5059421;27;88324;-67
2023/01/16 12:19:38;;;;;;;2.05;0.82;;;;;;;;;;5052402;27;87750;-66
2023/01/16 12:22:04;;;;;;;1.30;0.98;;;;;;;;;;5059834;27;89266;-65
2023/01/16 12:24:54;;;;;;;3.38;0.88;;;;;;;;;;5039127;27;88459;-66
2023/01/16 12:27:33;;;;;;;1.48;0.80;;;;;;;;;;5034789;27;87998;-66
2023/01/16 12:30:00;;;;;;;2.85;0.85;;;;;;;;;;5059094;27;89278;-66
2023/01/16 12:32:34;;;;;;;1.52;0.80;;;;;;;;;;5045332;27;88505;-66
2023/01/16 12:35:30;;;;;;;1.88;0.70;;;;;;;;;;5058904;27;87655;-66
2023/01/16 12:38:22;;;;;;;2.30;0.90;;;;;;;;;;4973275;27;88507;-66
2023/01/16 12:43:18;;;;;;;1.35;0.80;;;;;;;;;;4998932;27;89868;-66
2023/01/16 12:43:46;;;;;;;;;;;;;;;;;;5057509;27;88570;-66
2023/01/16 12:46:29;;;;;;;1.08;0.70;;;;;;;;;;5058371;27;118187;-66
2023/01/16 12:49:07;;;;;;;1.38;0.80;;;;;;;;;;5035987;27;87008;-65
2023/01/16 12:51:36;;;;;;;1.67;0.80;;;;;;;;;;5059718;27;87793;-66
2023/01/16 12:54:03;;;;;;;1.10;0.70;;;;;;;;;;5044264;27;90162;-66
2023/01/16 12:56:32;;;;;;;1.35;0.60;;;;;;;;;;5028983;27;88477;-66
2023/01/16 12:59:12;;;;;;;2.30;0.85;;;;;;;;;;5061325;27;88648;-66
2023/01/16 13:01:41;;;;;;;1.27;0.80;;;;;;;;;;5063983;27;88471;-65
2023/01/16 13:04:15;;;;;;;1.45;0.80;;;;;;;;;;5055691;27;88008;-65
2023/01/16 13:06:50;;;;;;;1.67;0.80;;;;;;;;;;5039137;27;89135;-64
2023/01/16 13:09:32;;;;;;;2.45;0.90;;;;;;;;;;5053241;27;87645;-64
2023/01/16 13:14:53;;;;;;;1.25;0.80;;;;;;;;;;5055019;27;87640;-66
2023/01/16 13:17:23;;;;;;;1.92;0.75;;;;;;;;;;5064915;27;88433;-65
2023/01/16 13:19:58;;;;;;;1.48;0.80;;;;;;;;;;5059708;27;88014;-65
2023/01/16 13:22:26;;;;;;;3.00;0.82;;;;;;;;;;5042977;27;88428;-65
2023/01/16 13:25:02;;;;;;;1.08;0.80;;;;;;;;;;5059828;27;89645;-65
2023/01/16 13:27:37;;;;;;;2.25;0.90;;;;;;;;;;5062442;27;88316;-65
2023/01/16 13:30:05;;;;;;;2.05;0.80;;;;;;;;;;5059829;27;88325;-65
2023/01/16 13:32:39;;;;;;;1.95;0.85;;;;;;;;;;5057355;27;88323;-65
2023/01/16 13:35:10;;;;;;;4.57;0.80;;;;;;;;;;5054934;27;88608;-65
2023/01/16 13:37:36;;;;;;;3.83;0.95;;;;;;;;;;5063067;27;89410;-70
2023/01/16 13:40:37;;;;;;;3.20;0.70;;;;;;;;;;5061265;27;88517;-70
2023/01/16 13:45:55;;;;;;;;;;;;;;;;;;5062484;27;88346;-72
2023/01/16 13:48:32;;;;;;;1.67;0.80;;;;;;;;;;5051160;27;118595;-73
2023/01/16 13:51:15;;;;;;;1.90;0.73;;;;;;;;;;5063926;27;87851;-74
2023/01/16 13:53:44;;;;;;;1.70;0.80;;;;;;;;;;5054984;27;88083;-73
2023/01/16 13:56:15;;;;;;;1.05;0.70;;;;;;;;;;5051296;27;88575;-72
2023/01/16 13:58:46;;;;;;;1.33;0.73;;;;;;;;;;5061960;27;87645;-71
2023/01/16 14:01:28;;;;;;;2.35;0.60;;;;;;;;;;5043603;27;87627;-73
2023/01/16 14:04:24;;;;;;;1.40;0.70;;;;;;;;;;5054645;27;88785;-72
2023/01/16 14:09:55;;;;;;;4.78;0.82;;;;;;;;;;5057305;27;89100;-69
2023/01/16 14:12:23;;;;;;;5.10;0.80;;;;;;;;;;5042874;27;88019;-70
2023/01/16 14:17:53;;;;;;;1.35;0.60;;;;;;;;;;5057789;27;88727;-71
2023/01/16 14:20:37;;;;;;;0.98;0.70;;;;;;;;;;5056462;27;87986;-70
2023/01/16 14:26:14;;;;;;;1.65;0.82;;;;;;;;;;4935891;28;88933;-71
2023/01/16 14:28:41;;;;;;;1.45;0.63;;;;;;;;;;4939999;28;88076;-70
2023/01/16 14:31:18;;;;;;;1.27;0.55;;;;;;;;;;4999035;27;88913;-70
2023/01/16 14:33:46;;;;;;;1.17;0.68;;;;;;;;;;5060778;27;87204;-70
2023/01/16 14:36:13;;;;;;;1.13;0.70;;;;;;;;;;5064481;27;88231;-71
2023/01/16 14:38:39;;;;;;;;;;;;;;;;;;5056509;27;88612;-71
2023/01/16 14:55:23;;;;;;;3.30;1.00;;;;;;;;;;5061832;27;88291;-72
2023/01/16 14:57:49;;;;;;;1.85;0.85;;;;;;;;;;5043750;27;90003;-70
2023/01/16 15:00:31;;;;;;;3.17;0.90;;;;;;;;;;5048746;27;87660;-70
2023/01/16 15:03:03;;;;;;;3.38;1.02;;;;;;;;;;5045272;27;87985;-69
2023/01/16 15:05:51;;;;;;;3.45;1.00;;;;;;;;;;5063056;27;89012;-73
2023/01/16 15:08:21;;;;;;;3.80;0.90;;;;;;;;;;5062079;27;89123;-71
2023/01/16 15:10:49;;;;;;;2.85;0.90;;;;;;;;;;5062862;27;87540;-73
2023/01/16 15:13:22;;;;;;;2.90;0.90;;;;;;;;;;5043937;27;91003;-73
2023/01/16 15:16:08;;;;;;;3.10;1.17;;;;;;;;;;5041174;27;88012;-73
2023/01/16 15:24:17;;;;;;;1.90;1.02;;;;;;;;;;5060912;27;87915;-70
2023/01/16 15:26:47;;;;;;;3.85;1.15;;;;;;;;;;5046748;27;87994;-69
2023/01/16 15:29:22;;;;;;;1.98;0.90;;;;;;;;;;5059088;27;88600;-71
2023/01/16 15:32:03;;;;;;;2.22;0.90;;;;;;;;;;5034391;27;88886;-72
2023/01/16 15:34:30;;;;;;;3.05;1.10;;;;;;;;;;5048015;27;88563;-71
2023/01/16 15:36:57;;;;;;;2.58;1.08;;;;;;;;;;5061406;27;88645;-74
2023/01/16 15:39:33;;;;;;;4.15;1.00;;;;;;;;;;5056311;27;88512;-74
2023/01/16 15:47:57;;;;;;;2.53;1.00;;;;;;;;;;5018267;27;88514;-74
2023/01/16 15:50:30;;;;;;;2.63;1.10;;;;;;;;;;5057826;27;88309;-72
2023/01/16 15:52:58;;;;;;;3.13;0.80;;;;;;;;;;5064476;27;87197;-72
2023/01/16 15:55:26;;;;;;;1.23;0.90;;;;;;;;;;5060083;27;87595;-68
2023/01/16 15:57:57;;;;;;;2.35;1.10;;;;;;;;;;5041452;27;88211;-68
2023/01/16 16:00:30;;;;;;;3.15;0.77;;;;;;;;;;5064833;27;88630;-68
2023/01/16 16:02:57;;;;;;;1.65;1.10;;;;;;;;;;5059534;27;88428;-68
2023/01/16 16:05:23;;;;;;;;;;;;;;;;;;5044844;27;89124;-68
2023/01/16 16:07:50;;;;;;;2.00;0.98;;;;;;;;;;5062955;27;116963;-68
2023/01/16 16:11:51;;;;;;;1.35;0.95;;;;;;;;;;5062731;27;88244;-68
2023/01/16 16:13:05;;;;;;;2.42;1.33;;;;;;;;;;5061150;27;87978;-68
2023/01/16 16:18:19;;;;;;;4.95;2.35;;;;;;;;;;5064523;27;86903;-68
2023/01/16 16:20:46;;;;;;;3.80;2.30;;;;;;;;;;5064344;27;88045;-68
2023/01/16 16:23:15;;;;;;;4.50;2.42;;;;;;;;;;5066097;27;87730;-68
2023/01/16 16:25:53;;;;;;;3.38;2.10;;;;;;;;;;5062640;27;88569;-68
2023/01/16 16:28:19;;;;;;;5.20;2.60;;;;;;;;;;5036097;27;88485;-68
2023/01/16 16:30:46;;;;;;;5.07;2.42;;;;;;;;;;5064366;27;88052;-68
2023/01/16 16:33:15;;;;;;;3.50;2.03;;;;;;;;;;5045327;27;87720;-68
2023/01/16 16:35:46;;;;;;;4.65;2.13;;;;;;;;;;5064098;27;88110;-68
2023/01/16 16:38:35;;;;;;;3.88;2.40;;;;;;;;;;5063268;27;88459;-68
2023/01/16 16:41:08;;;;;;;4.15;2.65;;;;;;;;;;5046699;27;87701;-68
2023/01/16 16:43:55;;;;;;;3.65;2.13;;;;;;;;;;5064128;27;87875;-68
2023/01/16 16:46:24;;;;;;;3.78;2.30;;;;;;;;;;5038313;27;87756;-68
2023/01/16 16:48:51;;;;;;;3.45;1.90;;;;;;;;;;5062187;27;88732;-68
2023/01/16 16:51:22;;;;;;;3.13;1.90;;;;;;;;;;5059993;27;89422;-68
2023/01/16 16:53:52;;;;;;;2.35;1.60;;;;;;;;;;5062791;27;87718;-68
2023/01/16 16:56:20;;;;;;;3.53;1.73;;;;;;;;;;5057857;27;88119;-68
2023/01/16 16:58:48;;;;;;;3.03;1.70;;;;;;;;;;5043837;27;88965;-68
2023/01/16 17:01:29;;;;;;;2.58;1.60;;;;;;;;;;5063707;27;87916;-68
2023/01/16 17:03:57;;;;;;;2.83;1.70;;;;;;;;;;5039856;27;90156;-68
2023/01/16 17:06:27;;;;;;;3.15;1.60;;;;;;;;;;5066349;27;89557;-68
2023/01/16 17:08:54;;;;;;;2.25;1.50;;;;;;;;;;5063726;27;88231;-68
2023/01/16 17:11:20;;;;;;;2.47;1.48;;;;;;;;;;5056117;27;88665;-68
2023/01/16 17:13:47;;;;;;;2.65;1.55;;;;;;;;;;5063259;27;87925;-68
2023/01/16 17:16:17;;;;;;;2.63;1.50;;;;;;;;;;5060603;27;88782;-68
2023/01/16 17:18:45;;;;;;;2.97;1.50;;;;;;;;;;5062900;27;88401;-68
2023/01/16 17:21:20;;;;;;;3.88;2.03;;;;;;;;;;5063219;27;88039;-68
2023/01/16 17:23:47;;;;;;;3.50;1.98;;;;;;;;;;5050486;27;88820;-68
2023/01/16 17:26:15;;;;;;;5.00;2.10;;;;;;;;;;5057353;27;88901;-68
2023/01/16 17:28:41;;;;;;;3.75;2.00;;;;;;;;;;5063844;27;88125;-68
2023/01/16 17:31:18;;;;;;;10.18;5.35;;;;;;;;;;5061821;27;89797;-67
2023/01/16 17:33:45;;;;;;;20.45;11.77;;;;;;;;;;5062615;27;87747;-67
2023/01/16 17:36:21;;;;;;;22.60;13.25;;;;;;;;;;5060366;27;88867;-67
2023/01/16 17:38:48;;;;;;;23.92;12.52;;;;;;;;;;5057616;27;88616;-67
2023/01/16 17:41:17;;;;;;;22.42;12.10;;;;;;;;;;5058962;27;89532;-66
2023/01/16 17:46:29;;;;;;;22.35;10.45;;;;;;;;;;5060424;27;88683;-68
2023/01/16 17:48:55;;;;;;;25.75;10.73;;;;;;;;;;5060502;27;89425;-68
2023/01/16 17:51:23;;;;;;;17.75;8.55;;;;;;;;;;5065799;27;89949;-68
2023/01/16 17:53:51;;;;;;;18.10;7.80;;;;;;;;;;5049033;27;89017;-68
2023/01/16 17:56:18;;;;;;;18.13;7.05;;;;;;;;;;5044553;27;88146;-68
2023/01/16 18:01:12;;;;;;;15.70;6.82;;;;;;;;;;5055557;27;87897;-68
2023/01/16 18:03:39;;;;;;;15.38;6.60;;;;;;;;;;5058231;27;87843;-68
2023/01/16 18:06:06;;;;;;;13.60;6.25;;;;;;;;;;5059296;27;89167;-68
2023/01/16 18:08:33;;;;;;;16.13;6.50;;;;;;;;;;5056797;27;87592;-68